Claremont, Illinois
Current Conditions -  °F | °C
As of 12:55 PM on Sunday 23 Nov 2014 (Local Time) from KOLY Reporting Station
Overcast Overcast  
Wind Chill: 52°   Ceiling: 1800
Heat Index: 52°   Visibility: 7mi
Dew Point: 48°   Wind: 8mph
Humidity: 88%   Direction: 130°SE
Pressure: 29.57"   Gusts: NA
Location:  38.72°N, 87.97°W
Report Text: KOLY 231855Z AUTO 13007KT 7SM OVC018 11/09 A2957 RMK AO2
Loading
Personal Weather Stations






























Interactive Weather Map New forecast layout! Learn more

10-Day Weather Forecast

Advertisements
Track Severe Weather on mobile